createdAt,value
2017-07-01T00:01:46.168Z,95964.11
2017-07-01T00:04:12.128Z,95971.88
2017-07-01T00:06:38.009Z,95974.30
2017-07-01T00:09:03.912Z,95933.06
2017-07-01T00:11:29.909Z,95971.98
2017-07-01T00:13:55.868Z,95979.59
2017-07-01T00:16:21.751Z,95976.80
2017-07-01T00:18:47.609Z,95977.52
2017-07-01T00:21:13.547Z,95973.37
2017-07-01T00:23:39.396Z,95976.70
2017-07-01T00:26:05.274Z,95975.31
2017-07-01T00:28:31.239Z,95967.63
2017-07-01T00:30:57.071Z,95975.45
2017-07-01T00:33:23.016Z,95970.66
2017-07-01T00:35:49.476Z,95980.67
2017-07-01T00:38:15.324Z,95975.44
2017-07-01T00:40:41.206Z,95979.08
2017-07-01T00:43:07.111Z,95977.93
2017-07-01T00:45:33.003Z,95977.58
2017-07-01T00:47:59.062Z,95976.41
2017-07-01T00:50:24.974Z,95971.35
2017-07-01T00:52:50.865Z,95935.05
2017-07-01T00:55:16.858Z,95977.23
2017-07-01T00:57:42.744Z,95976.52
2017-07-01T01:00:08.695Z,95983.02
2017-07-01T01:02:34.549Z,95978.33
2017-07-01T01:05:00.444Z,95980.46
2017-07-01T01:07:26.311Z,95983.30
2017-07-01T01:09:52.199Z,95983.63
2017-07-01T01:12:18.039Z,95981.81
2017-07-01T01:14:43.868Z,95982.16
2017-07-01T01:17:09.843Z,95980.67
2017-07-01T01:19:35.705Z,95985.70
2017-07-01T01:22:01.543Z,95982.60
2017-07-01T01:24:27.518Z,95982.95
2017-07-01T01:26:53.616Z,95978.52
2017-07-01T01:29:19.518Z,95986.05
2017-07-01T01:31:45.414Z,95981.47
2017-07-01T01:34:11.287Z,95982.81
2017-07-01T01:36:37.168Z,95988.25
2017-07-01T01:39:03.046Z,95971.03
2017-07-01T01:41:28.904Z,95988.76
2017-07-01T01:43:54.841Z,95991.80
2017-07-01T01:46:20.752Z,95986.05
2017-07-01T01:48:46.669Z,95992.55
2017-07-01T01:51:12.565Z,95991.29
2017-07-01T01:53:38.416Z,95994.74
2017-07-01T01:56:04.409Z,95991.36
2017-07-01T01:58:30.464Z,95990.45
2017-07-01T02:00:56.389Z,95990.92
2017-07-01T02:03:22.307Z,95989.70
2017-07-01T02:05:48.263Z,95993.38
2017-07-01T02:08:14.127Z,95995.66
2017-07-01T02:10:40.129Z,95992.59
2017-07-01T02:13:06.236Z,95985.87
2017-07-01T02:15:32.143Z,95978.60
2017-07-01T02:18:00.920Z,95996.58
2017-07-01T02:20:37.039Z,95991.50
2017-07-01T02:23:02.906Z,95995.45
2017-07-01T02:25:32.544Z,95976.39
2017-07-01T02:27:58.542Z,95995.08
2017-07-01T02:30:24.488Z,95995.92
2017-07-01T02:33:09.191Z,95996.53
2017-07-01T02:35:35.154Z,96009.07
2017-07-01T02:38:00.997Z,96011.92
2017-07-01T02:40:26.869Z,96015.03
2017-07-01T02:42:52.860Z,96009.58
2017-07-01T02:45:24.588Z,95999.38
2017-07-01T02:47:54.288Z,96011.80
2017-07-01T02:50:23.232Z,96012.77
2017-07-01T02:52:59.937Z,96018.19
2017-07-01T02:58:32.577Z,96018.77
2017-07-01T03:00:58.479Z,96021.61
2017-07-01T03:03:24.552Z,96024.71
2017-07-01T03:05:50.575Z,96030.75
2017-07-01T03:08:16.557Z,96021.08
2017-07-01T03:10:42.424Z,96031.67
2017-07-01T03:13:08.389Z,96035.36
2017-07-01T03:15:34.319Z,96036.25
2017-07-01T03:18:03.899Z,96037.06
2017-07-01T03:20:29.791Z,96043.98
2017-07-01T03:23:12.455Z,96040.48
2017-07-01T03:25:38.371Z,96048.88
2017-07-01T03:28:04.221Z,96048.11
2017-07-01T03:30:30.086Z,96048.03
2017-07-01T03:32:56.094Z,96051.14
2017-07-01T03:35:21.993Z,96055.18
2017-07-01T03:38:10.942Z,96050.78
2017-07-01T03:40:41.594Z,96039.16
2017-07-01T03:43:20.453Z,96045.87
2017-07-01T03:45:50.986Z,96053.37
2017-07-01T03:48:16.841Z,96049.83
2017-07-01T03:50:43.687Z,96046.10
2017-07-01T03:53:30.469Z,96048.72
2017-07-01T03:55:56.357Z,96053.99
2017-07-01T03:58:22.232Z,96054.80
2017-07-01T04:00:48.095Z,96054.27
2017-07-01T04:03:14.005Z,96047.95
2017-07-01T04:05:40.105Z,96050.06
2017-07-01T04:08:05.951Z,96058.07
2017-07-01T04:10:31.882Z,96058.14
2017-07-01T04:12:57.756Z,96057.11
2017-07-01T04:15:23.593Z,96057.91
2017-07-01T04:17:49.506Z,96054.83
2017-07-01T04:20:18.185Z,96059.25
2017-07-01T04:22:45.815Z,96083.88
2017-07-01T04:25:11.717Z,96064.30
2017-07-01T04:27:37.594Z,96050.64
2017-07-01T04:30:03.563Z,96068.14
2017-07-01T04:32:29.425Z,96073.95
2017-07-01T04:34:55.249Z,96073.61
2017-07-01T04:37:21.205Z,96079.34
2017-07-01T04:39:47.022Z,96077.83
2017-07-01T04:42:13.655Z,96080.99
2017-07-01T04:44:39.541Z,96066.67
2017-07-01T04:47:05.408Z,96083.36
2017-07-01T04:49:32.035Z,96085.64
2017-07-01T04:52:02.867Z,96088.11
2017-07-01T04:54:38.661Z,96087.06
2017-07-01T04:57:31.458Z,96085.91
2017-07-01T04:59:59.312Z,96093.67
2017-07-01T05:02:25.236Z,96094.24
2017-07-01T05:04:51.095Z,96057.16
2017-07-01T05:07:42.060Z,96091.74
2017-07-01T05:10:14.912Z,96091.83
2017-07-01T05:12:43.608Z,96095.58
2017-07-01T05:15:14.405Z,96093.99
2017-07-01T05:17:40.293Z,96090.58
2017-07-01T05:20:08.212Z,96079.70
2017-07-01T05:22:55.041Z,96096.41
2017-07-01T05:25:28.960Z,96099.55
2017-07-01T05:27:54.774Z,96102.22
2017-07-01T05:30:26.373Z,96102.50
2017-07-01T05:32:52.306Z,96101.78
2017-07-01T05:35:18.113Z,96108.45
2017-07-01T05:37:43.966Z,96068.89
2017-07-01T05:40:09.828Z,96113.20
2017-07-01T05:42:42.562Z,96108.13
2017-07-01T05:45:08.417Z,96121.89
2017-07-01T05:47:34.275Z,96115.69
2017-07-01T05:50:00.156Z,96110.77
2017-07-01T05:52:25.997Z,96102.00
2017-07-01T05:54:51.868Z,96062.80
2017-07-01T05:57:17.679Z,96116.04
2017-07-01T05:59:43.542Z,96115.67
2017-07-01T06:02:19.409Z,96120.48
2017-07-01T06:04:45.349Z,96124.31
2017-07-01T06:07:11.217Z,96126.36
2017-07-01T06:09:58.229Z,96123.23
2017-07-01T06:12:31.889Z,96108.38
2017-07-01T06:14:59.614Z,96129.17
2017-07-01T06:17:30.273Z,96126.21
2017-07-01T06:19:56.133Z,96132.02
2017-07-01T06:22:28.747Z,96124.98
2017-07-01T06:24:54.657Z,96124.94
2017-07-01T06:27:30.490Z,96120.84
2017-07-01T06:30:03.671Z,96122.37
2017-07-01T06:32:31.570Z,96131.48
2017-07-01T06:35:25.565Z,96127.77
2017-07-01T06:41:28.253Z,96130.40
2017-07-01T06:44:18.725Z,96137.98
2017-07-01T06:46:56.379Z,96136.33
2017-07-01T06:49:22.414Z,96130.83
2017-07-01T06:51:48.420Z,96136.80
2017-07-01T06:54:18.164Z,96133.67
2017-07-01T06:56:44.021Z,96129.93
2017-07-01T06:59:09.977Z,96124.48
2017-07-01T07:01:35.836Z,96129.16
2017-07-01T07:04:01.769Z,96121.91
2017-07-01T07:06:27.655Z,96130.37
2017-07-01T07:08:53.534Z,96138.88
2017-07-01T07:11:19.499Z,96128.36
2017-07-01T07:13:45.425Z,96132.34
2017-07-01T07:16:11.284Z,96128.45
2017-07-01T07:18:37.350Z,96134.38
2017-07-01T07:21:03.242Z,96139.98
2017-07-01T07:23:29.182Z,96141.34
2017-07-01T07:25:55.239Z,96138.24
2017-07-01T07:28:21.042Z,96145.09
2017-07-01T07:30:46.977Z,96142.64
2017-07-01T07:33:12.860Z,96142.00
2017-07-01T07:35:38.725Z,96136.30
2017-07-01T07:38:04.691Z,96127.77
2017-07-01T07:40:30.718Z,96148.88
2017-07-01T07:42:56.749Z,96150.45
2017-07-01T07:45:22.646Z,96153.39
2017-07-01T07:47:49.605Z,96152.50
2017-07-01T07:50:15.515Z,96162.33
2017-07-01T07:52:41.414Z,96171.12
2017-07-01T07:55:07.262Z,96160.73
2017-07-01T07:57:33.105Z,96153.28
2017-07-01T07:59:58.938Z,96164.59
2017-07-01T08:02:24.853Z,96178.88
2017-07-01T08:04:50.752Z,96175.21
2017-07-01T08:07:16.726Z,96177.06
2017-07-01T08:09:42.796Z,96170.33
2017-07-01T08:12:08.807Z,96176.11
2017-07-01T08:14:34.693Z,96167.67
2017-07-01T08:17:00.582Z,96152.83
2017-07-01T08:19:26.461Z,96183.14
2017-07-01T08:21:52.299Z,96187.06
2017-07-01T08:24:18.320Z,96185.77
2017-07-01T08:26:44.231Z,96187.08
2017-07-01T08:29:10.169Z,96182.98
2017-07-01T08:31:35.984Z,96189.53
2017-07-01T08:34:01.891Z,96175.67
2017-07-01T08:36:27.754Z,96185.84
2017-07-01T08:38:53.608Z,96191.91
2017-07-01T08:41:19.482Z,96189.09
2017-07-01T08:43:45.369Z,96191.35
2017-07-01T08:46:11.241Z,96196.72
2017-07-01T08:48:37.100Z,96192.70
2017-07-01T08:51:03.008Z,96190.13
2017-07-01T08:53:28.869Z,96194.17
2017-07-01T08:55:54.676Z,96186.11
2017-07-01T08:58:20.587Z,96196.16
2017-07-01T09:00:46.425Z,96194.34
2017-07-01T09:03:12.363Z,96198.12
2017-07-01T09:05:38.192Z,96196.89
2017-07-01T09:08:04.011Z,96202.67
2017-07-01T09:10:29.873Z,96195.96
2017-07-01T09:12:55.710Z,96208.27
2017-07-01T09:15:21.588Z,96199.21
2017-07-01T09:17:47.449Z,96205.23
2017-07-01T09:20:13.269Z,96189.03
2017-07-01T09:22:39.103Z,96202.57
2017-07-01T09:25:04.948Z,96202.99
2017-07-01T09:27:30.841Z,96178.09
2017-07-01T09:29:56.826Z,96197.11
2017-07-01T09:32:22.645Z,96200.34
2017-07-01T09:34:48.690Z,96203.20
2017-07-01T09:37:14.641Z,96206.33
2017-07-01T09:39:40.457Z,96178.50
2017-07-01T09:42:06.357Z,96202.36
2017-07-01T09:44:39.261Z,96204.33
2017-07-01T09:47:05.122Z,96176.56
2017-07-01T09:49:30.991Z,96201.22
2017-07-01T09:51:56.929Z,96211.28
2017-07-01T09:54:22.772Z,96210.45
2017-07-01T09:56:48.582Z,96214.81
2017-07-01T09:59:14.430Z,96209.08
2017-07-01T10:01:40.283Z,96220.33
2017-07-01T10:04:06.113Z,96213.39
2017-07-01T10:06:32.261Z,96213.97
2017-07-01T10:08:58.070Z,96219.67
2017-07-01T10:11:23.944Z,96211.03
2017-07-01T10:13:49.801Z,96220.95
2017-07-01T10:16:15.719Z,96222.77
2017-07-01T10:18:41.598Z,96227.08
2017-07-01T10:21:07.456Z,96229.40
2017-07-01T10:23:33.427Z,96222.26
2017-07-01T10:25:59.322Z,96226.49
2017-07-01T10:28:25.206Z,96242.58
2017-07-01T10:30:51.028Z,96242.87
2017-07-01T10:33:17.455Z,96229.05
2017-07-01T10:35:43.347Z,96232.07
2017-07-01T10:38:09.420Z,96244.74
2017-07-01T10:40:35.237Z,96246.58
2017-07-01T10:43:01.239Z,96245.68
2017-07-01T10:45:27.159Z,96252.16
2017-07-01T10:47:53.003Z,96248.73
2017-07-01T10:50:18.864Z,96243.27
2017-07-01T10:52:44.777Z,96246.55
2017-07-01T10:55:10.643Z,96223.16
2017-07-01T10:57:36.475Z,96242.19
2017-07-01T11:00:02.387Z,96245.13
2017-07-01T11:02:28.289Z,96249.28
2017-07-01T11:04:54.188Z,96249.05
2017-07-01T11:07:20.152Z,96250.49
2017-07-01T11:09:46.023Z,96246.91
2017-07-01T11:12:11.869Z,96246.30
2017-07-01T11:14:37.694Z,96241.88
2017-07-01T11:17:03.729Z,96254.66
2017-07-01T11:19:29.638Z,96246.80
2017-07-01T11:21:55.451Z,96228.97
2017-07-01T11:24:21.420Z,96247.52
2017-07-01T11:26:47.297Z,96248.28
2017-07-01T11:29:13.233Z,96238.66
2017-07-01T11:31:39.253Z,96268.98
2017-07-01T11:34:05.162Z,96257.19
2017-07-01T11:36:30.989Z,96254.17
2017-07-01T11:38:56.833Z,96261.27
2017-07-01T11:41:22.705Z,96263.02
2017-07-01T11:43:49.342Z,96256.94
2017-07-01T11:46:15.161Z,96258.50
2017-07-01T11:48:41.016Z,96263.21
2017-07-01T11:51:07.018Z,96269.50
2017-07-01T11:53:32.937Z,96266.16
2017-07-01T11:55:58.892Z,96271.41
2017-07-01T11:58:24.849Z,96272.80
2017-07-01T12:00:50.699Z,96266.36
2017-07-01T12:03:16.697Z,96276.89
2017-07-01T12:05:42.519Z,96272.69
2017-07-01T12:08:08.367Z,96278.32
2017-07-01T12:10:34.280Z,96274.03
2017-07-01T12:13:00.130Z,96289.16
2017-07-01T12:15:25.949Z,96296.83
2017-07-01T12:17:51.833Z,96290.20
2017-07-01T12:20:17.686Z,96290.83
2017-07-01T12:22:43.485Z,96295.05
2017-07-01T12:25:09.305Z,96300.49
2017-07-01T12:27:35.128Z,96303.68
2017-07-01T12:30:01.231Z,96297.34
2017-07-01T12:32:27.076Z,96307.48
2017-07-01T12:34:52.909Z,96262.31
2017-07-01T12:37:18.770Z,96309.06
2017-07-01T12:39:44.601Z,96313.53
2017-07-01T12:42:10.636Z,96311.79
2017-07-01T12:44:36.689Z,96326.73
2017-07-01T12:47:02.499Z,96317.09
2017-07-01T12:49:28.475Z,96324.27
2017-07-01T12:51:54.516Z,96318.58
2017-07-01T12:54:20.358Z,96316.50
2017-07-01T12:56:46.327Z,96326.64
2017-07-01T12:59:12.137Z,96309.77
2017-07-01T13:01:37.985Z,96315.14
2017-07-01T13:04:03.848Z,96318.56
2017-07-01T13:06:29.736Z,96316.50
2017-07-01T13:08:55.581Z,96327.57
2017-07-01T13:11:24.305Z,96321.55
2017-07-01T13:13:50.130Z,96324.52
2017-07-01T13:16:15.990Z,96326.97
2017-07-01T13:18:41.909Z,96323.62
2017-07-01T13:21:07.778Z,96328.64
2017-07-01T13:23:33.634Z,96323.41
2017-07-01T13:25:59.630Z,96325.52
2017-07-01T13:28:25.485Z,96315.94
2017-07-01T13:30:51.295Z,96334.97
2017-07-01T13:33:17.113Z,96311.16
2017-07-01T13:35:42.946Z,96333.23
2017-07-01T13:38:08.865Z,96332.09
2017-07-01T13:40:34.709Z,96323.62
2017-07-01T13:43:00.567Z,96346.56
2017-07-01T13:45:26.373Z,96333.27
2017-07-01T13:47:52.208Z,96338.48
2017-07-01T13:50:18.060Z,96340.54
2017-07-01T13:52:43.996Z,96336.11
2017-07-01T13:55:09.837Z,96335.12
2017-07-01T13:57:35.733Z,96335.30
2017-07-01T14:00:01.658Z,96337.88
2017-07-01T14:02:27.508Z,96314.84
2017-07-01T14:04:53.360Z,96327.34
2017-07-01T14:07:19.168Z,96321.02
2017-07-01T14:09:44.973Z,96319.20
2017-07-01T14:12:10.820Z,96311.35
2017-07-01T14:14:36.618Z,96322.70
2017-07-01T14:17:02.456Z,96313.25
2017-07-01T14:19:28.291Z,96298.27
2017-07-01T14:21:54.106Z,96302.72
2017-07-01T14:24:19.906Z,96310.32
2017-07-01T14:26:45.890Z,96324.52
2017-07-01T14:29:11.708Z,96319.26
2017-07-01T14:31:37.515Z,96312.83
2017-07-01T14:34:03.342Z,96326.98
2017-07-01T14:36:29.227Z,96324.41
2017-07-01T14:38:55.166Z,96327.25
2017-07-01T14:41:21.004Z,96326.17
2017-07-01T14:43:46.888Z,96326.40
2017-07-01T14:46:12.862Z,96323.38
2017-07-01T14:48:38.702Z,96319.98
2017-07-01T14:51:04.497Z,96318.02
2017-07-01T14:53:30.347Z,96321.31
2017-07-01T14:55:56.177Z,96329.09
2017-07-01T14:58:22.865Z,96329.33
2017-07-01T15:00:48.797Z,96319.45
2017-07-01T15:03:14.611Z,96328.44
2017-07-01T15:05:40.412Z,96332.52
2017-07-01T15:08:06.264Z,96328.05
2017-07-01T15:10:32.081Z,96334.18
2017-07-01T15:12:57.897Z,96329.62
2017-07-01T15:15:23.740Z,96336.25
2017-07-01T15:17:49.580Z,96315.41
2017-07-01T15:20:15.505Z,96333.80
2017-07-01T15:22:41.345Z,96313.86
2017-07-01T15:25:07.135Z,96281.81
2017-07-01T15:27:32.930Z,96331.55
2017-07-01T15:29:58.905Z,96336.25
2017-07-01T15:32:24.883Z,96342.22
2017-07-01T15:34:50.723Z,96342.28
2017-07-01T15:37:16.706Z,96350.34
2017-07-01T15:39:42.565Z,96345.53
2017-07-01T15:42:08.531Z,96348.55
2017-07-01T15:44:34.334Z,96347.13
2017-07-01T15:47:00.221Z,96354.59
2017-07-01T15:49:26.196Z,96348.58
2017-07-01T15:51:52.028Z,96352.84
2017-07-01T15:54:17.893Z,96358.17
2017-07-01T15:56:43.912Z,96357.86
2017-07-01T15:59:09.893Z,96350.01
2017-07-01T16:01:48.073Z,96349.02
2017-07-01T16:04:13.945Z,96356.39
2017-07-01T16:06:39.801Z,96359.03
2017-07-01T16:09:05.701Z,96365.34
2017-07-01T16:11:31.614Z,96359.80
2017-07-01T16:13:57.445Z,96360.25
2017-07-01T16:16:23.243Z,96356.77
2017-07-01T16:18:49.176Z,96336.02
2017-07-01T16:21:15.086Z,96364.67
2017-07-01T16:23:40.913Z,96364.08
2017-07-01T16:26:06.760Z,96366.08
2017-07-01T16:28:32.571Z,96364.97
2017-07-01T16:30:58.434Z,96375.52
2017-07-01T16:33:24.270Z,96353.38
2017-07-01T16:35:50.105Z,96366.42
2017-07-01T16:38:16.020Z,96357.27
2017-07-01T16:40:41.912Z,96362.73
2017-07-01T16:43:07.750Z,96358.49
2017-07-01T16:45:33.551Z,96371.17
2017-07-01T16:47:59.396Z,96361.63
2017-07-01T16:50:25.406Z,96364.37
2017-07-01T16:52:51.290Z,96349.14
2017-07-01T16:55:17.130Z,96370.63
2017-07-01T16:57:43.076Z,96371.00
2017-07-01T17:00:08.921Z,96369.82
2017-07-01T17:02:34.824Z,96369.91
2017-07-01T17:05:00.658Z,96351.73
2017-07-01T17:07:26.477Z,96384.27
2017-07-01T17:09:52.333Z,96353.40
2017-07-01T17:12:18.173Z,96373.45
2017-07-01T17:14:43.969Z,96372.23
2017-07-01T17:17:09.851Z,96383.94
2017-07-01T17:19:35.695Z,96388.29
2017-07-01T17:22:01.572Z,96389.27
2017-07-01T17:24:27.417Z,96383.06
2017-07-01T17:26:53.317Z,96369.05
2017-07-01T17:29:19.249Z,96389.72
2017-07-01T17:31:45.109Z,96388.48
2017-07-01T17:34:10.986Z,96394.50
2017-07-01T17:36:36.823Z,96388.27
2017-07-01T17:39:02.780Z,96400.88
2017-07-01T17:41:28.624Z,96411.33
2017-07-01T17:43:54.469Z,96404.06
2017-07-01T17:46:20.418Z,96411.63
2017-07-01T17:48:46.237Z,96402.07
2017-07-01T17:51:12.104Z,96404.36
2017-07-01T17:53:37.907Z,96405.03
2017-07-01T17:56:03.706Z,96407.75
2017-07-01T17:58:30.457Z,96415.02
2017-07-01T18:00:56.333Z,96393.18
2017-07-01T18:03:22.194Z,96411.55
2017-07-01T18:05:48.052Z,96425.89
2017-07-01T18:08:14.019Z,96435.97
2017-07-01T18:10:39.814Z,96435.31
2017-07-01T18:13:05.713Z,96439.56
2017-07-01T18:15:31.544Z,96440.60
2017-07-01T18:17:57.382Z,96444.72
2017-07-01T18:20:23.323Z,96436.38
2017-07-01T18:22:49.148Z,96444.45
2017-07-01T18:25:14.976Z,96445.09
2017-07-01T18:27:40.770Z,96442.73
2017-07-01T18:30:06.620Z,96441.86
2017-07-01T18:32:32.473Z,96453.38
2017-07-01T18:34:58.380Z,96443.51
2017-07-01T18:37:31.232Z,96445.41
2017-07-01T18:39:57.070Z,96461.19
2017-07-01T18:42:22.924Z,96456.33
2017-07-01T18:44:48.775Z,96453.66
2017-07-01T18:47:14.644Z,96461.80
2017-07-01T18:49:40.485Z,96448.61
2017-07-01T18:52:06.290Z,96460.95
2017-07-01T18:54:32.130Z,96467.36
2017-07-01T18:56:57.941Z,96473.03
2017-07-01T18:59:23.819Z,96464.47
2017-07-01T19:01:49.888Z,96464.20
2017-07-01T19:04:15.785Z,96459.30
2017-07-01T19:06:41.601Z,96461.03
2017-07-01T19:09:07.550Z,96460.53
2017-07-01T19:11:33.349Z,96470.45
2017-07-01T19:13:59.258Z,96471.22
2017-07-01T19:16:25.116Z,96473.38
2017-07-01T19:18:50.928Z,96477.66
2017-07-01T19:21:17.856Z,96480.13
2017-07-01T19:23:43.855Z,96482.02
2017-07-01T19:26:09.720Z,96474.66
2017-07-01T19:28:35.704Z,96476.78
2017-07-01T19:31:01.625Z,96488.56
2017-07-01T19:33:27.479Z,96495.47
2017-07-01T19:35:53.278Z,96465.37
2017-07-01T19:38:19.121Z,96460.70
2017-07-01T19:40:44.945Z,96462.78
2017-07-01T19:43:10.777Z,96495.89
2017-07-01T19:45:36.647Z,96499.41
2017-07-01T19:48:02.663Z,96505.33
2017-07-01T19:50:28.607Z,96510.83
2017-07-01T19:52:54.520Z,96517.66
2017-07-01T19:55:20.546Z,96514.59
2017-07-01T19:57:46.599Z,96519.34
2017-07-01T20:00:12.622Z,96527.94
2017-07-01T20:02:38.516Z,96529.14
2017-07-01T20:05:04.352Z,96532.39
2017-07-01T20:07:30.227Z,96517.09
2017-07-01T20:09:56.060Z,96538.55
2017-07-01T20:12:22.028Z,96540.54
2017-07-01T20:14:47.903Z,96536.30
2017-07-01T20:17:13.824Z,96540.59
2017-07-01T20:19:39.751Z,96545.03
2017-07-01T20:22:05.587Z,96547.30
2017-07-01T20:24:31.628Z,96550.95
2017-07-01T20:26:57.521Z,96552.20
2017-07-01T20:29:23.400Z,96550.44
2017-07-01T20:31:49.436Z,96559.71
2017-07-01T20:34:15.507Z,96562.12
2017-07-01T20:36:41.496Z,96560.17
2017-07-01T20:39:07.542Z,96553.55
2017-07-01T20:41:33.457Z,96553.63
2017-07-01T20:43:59.319Z,96558.50
2017-07-01T20:46:25.168Z,96555.46
2017-07-01T20:48:51.008Z,96554.34
2017-07-01T20:51:16.940Z,96566.02
2017-07-01T20:53:42.887Z,96566.62
2017-07-01T20:56:08.784Z,96563.13
2017-07-01T20:58:34.707Z,96575.21
2017-07-01T21:01:00.727Z,96576.58
2017-07-01T21:03:26.645Z,96577.36
2017-07-01T21:05:52.568Z,96576.77
2017-07-01T21:08:18.602Z,96578.33
2017-07-01T21:10:44.489Z,96579.40
2017-07-01T21:13:10.424Z,96584.22
2017-07-01T21:15:36.264Z,96583.44
2017-07-01T21:18:02.155Z,96585.48
2017-07-01T21:20:28.075Z,96591.98
2017-07-01T21:22:54.025Z,96591.67
2017-07-01T21:25:19.888Z,96592.86
2017-07-01T21:27:45.853Z,96592.63
2017-07-01T21:30:11.685Z,96589.45
2017-07-01T21:32:37.611Z,96596.25
2017-07-01T21:35:03.476Z,96590.38
2017-07-01T21:37:29.336Z,96563.29
2017-07-01T21:39:55.172Z,96552.42
2017-07-01T21:42:21.040Z,96597.56
2017-07-01T21:44:46.882Z,96593.63
2017-07-01T21:47:12.824Z,96594.41
2017-07-01T21:49:38.704Z,96599.30
2017-07-01T21:52:04.531Z,96600.06
2017-07-01T21:54:30.371Z,96597.56
2017-07-01T21:56:56.247Z,96598.38
2017-07-01T21:59:22.129Z,96600.53
2017-07-01T22:01:47.953Z,96602.31
2017-07-01T22:04:13.768Z,96605.71
2017-07-01T22:06:39.645Z,96605.24
2017-07-01T22:09:05.535Z,96608.27
2017-07-01T22:11:31.405Z,96609.17
2017-07-01T22:13:57.309Z,96609.78
2017-07-01T22:16:23.295Z,96611.24
2017-07-01T22:18:49.142Z,96609.75
2017-07-01T22:21:14.992Z,96613.03
2017-07-01T22:23:40.960Z,96614.64
2017-07-01T22:26:06.815Z,96615.71
2017-07-01T22:28:32.832Z,96615.66
2017-07-01T22:30:58.868Z,96613.98
2017-07-01T22:33:24.871Z,96612.93
2017-07-01T22:35:50.747Z,96620.37
2017-07-01T22:38:16.648Z,96619.64
2017-07-01T22:40:42.476Z,96625.02
2017-07-01T22:43:08.341Z,96625.36
2017-07-01T22:45:34.194Z,96619.64
2017-07-01T22:48:00.124Z,96616.37
2017-07-01T22:50:25.991Z,96616.03
2017-07-01T22:52:51.861Z,96615.97
2017-07-01T22:55:17.758Z,96619.89
2017-07-01T22:57:43.699Z,96621.69
2017-07-01T23:00:09.625Z,96616.03
2017-07-01T23:02:35.772Z,96581.83
2017-07-01T23:05:01.781Z,96612.21
2017-07-01T23:07:27.679Z,96611.45
2017-07-01T23:09:53.551Z,96614.12
2017-07-01T23:12:20.321Z,96614.17
2017-07-01T23:14:46.183Z,96579.22
2017-07-01T23:17:12.038Z,96618.66
2017-07-01T23:19:37.947Z,96621.38
2017-07-01T23:22:03.813Z,96599.66
2017-07-01T23:24:29.659Z,96597.03
2017-07-01T23:26:55.512Z,96612.88
2017-07-01T23:29:21.491Z,96612.39
2017-07-01T23:31:47.355Z,96611.92
2017-07-01T23:34:13.196Z,96615.68
2017-07-01T23:36:39.079Z,96614.72
2017-07-01T23:39:04.966Z,96619.53
2017-07-01T23:41:30.796Z,96613.41
2017-07-01T23:43:56.653Z,96611.06
2017-07-01T23:46:22.484Z,96618.75
2017-07-01T23:48:48.347Z,96618.36
2017-07-01T23:51:14.283Z,96612.77
2017-07-01T23:53:40.161Z,96617.87
2017-07-01T23:56:06.172Z,96619.28
2017-07-01T23:58:32.066Z,96620.31
